Metar z pełnej godziny Komunikat METAR ze strony awiacja.imgw.pl Metar G00 EPGD METAR EPGD 212200Z 06007KT CAVOK 16/13 Q1014 =